FW6569 Weather Reports


Display with metric or nautical units.
time (UTC)temp
F
wind
direction
speed
MPH
gust
MPH
rain 1hr
in
rain 24hr
in
rain mn
in
humidity
%
barometer
mb
20220524180521 74 53 7.0 10.0 0.00 0.00 0.00 62 1020.9
20220524175519 74 77 7.0 10.0 0.00 0.00 0.00 63 1021.1
20220524174521 73 25 6.0 9.0 0.00 0.00 0.00 63 1021.1
20220524173519 73 59 7.0 11.0 0.00 0.00 0.00 63 1021.3
20220524172524 72 16 6.0 12.0 0.00 0.00 0.00 63 1021.3
20220524171521 72 39 7.0 9.0 0.00 0.00 0.00 63 1021.4
20220524170529 73 97 8.0 11.0 0.00 0.00 0.00 63 1021.5
20220524165523 72 51 6.0 9.0 0.00 0.00 0.00 63 1021.6
20220524164521 72 91 8.0 10.0 0.00 0.00 0.00 64 1021.7
20220524163519 71 25 6.0 7.0 0.00 0.00 0.00 64 1021.9
20220524162523 70 68 7.0 9.0 0.00 0.00 0.00 64 1022.0
20220524161526 70 80 7.0 9.0 0.00 0.00 0.00 65 1022.1
20220524160519 70 65 7.0 10.0 0.00 0.00 0.00 66 1022.1
20220524155521 70 87 8.0 10.0 0.00 0.00 0.00 66 1022.0
20220524154524 70 53 7.0 9.0 0.00 0.00 0.00 66 1022.1
20220524153524 69 55 7.0 9.0 0.00 0.00 0.00 67 1022.1
20220524152526 68 24 9.0 13.0 0.00 0.00 0.00 68 1022.2
20220524151527 68 28 8.0 12.0 0.00 0.00 0.00 68 1022.3
20220524150521 67 12 8.0 12.0 0.00 0.00 0.00 69 1022.3
20220524145520 67 24 6.0 10.0 0.00 0.00 0.00 69 1022.3
20220524144524 67 75 6.0 9.0 0.00 0.00 0.00 70 1022.4
20220524143527 67 90 8.0 14.0 0.00 0.00 0.00 72 1022.3
20220524142522 65 32 6.0 10.0 0.00 0.00 0.00 72 1022.2
20220524141522 65 356 9.0 11.0 0.00 0.00 0.00 73 1022.2
20220524140521 64 25 6.0 8.0 0.00 0.00 0.00 74 1022.1
20220524135525 63 35 6.0 10.0 0.00 0.00 0.00 75 1022.2
20220524134523 63 20 7.0 10.0 0.00 0.00 0.00 76 1022.2
20220524133519 62 23 4.0 7.0 0.00 0.00 0.00 77 1022.4
20220524132519 61 11 7.0 8.0 0.00 0.00 0.00 78 1022.5
20220524131528 60 22 7.0 10.0 0.00 0.00 0.00 79 1022.5
20220524130521 60 32 6.0 9.0 0.00 0.00 0.00 80 1022.5
20220524125519 59 32 6.0 9.0 0.00 0.00 0.00 81 1022.5
20220524124520 58 13 7.0 9.0 0.00 0.00 0.00 82 1022.6
20220524123519 57 45 5.0 7.0 0.00 0.00 0.00 84 1022.6
20220524122519 57 31 6.0 9.0 0.00 0.00 0.00 85 1022.6
20220524121520 56 37 4.0 7.0 0.00 0.00 0.00 87 1022.5
20220524120522 55 14 5.0 7.0 0.00 0.00 0.00 88 1022.4
20220524115523 54 15 7.0 10.0 0.00 0.00 0.00 89 1022.5
20220524114520 54 18 6.0 7.0 0.00 0.00 0.00 90 1022.3
20220524113527 53 15 5.0 7.0 0.00 0.00 0.00 91 1022.4
20220524112528 52 18 6.0 8.0 0.00 0.00 0.00 91 1022.3
20220524111531 51 9 5.0 5.0 0.00 0.00 0.00 91 1022.2
20220524110522 51 14 5.0 6.0 0.00 0.00 0.00 91 1021.9
20220524105521 51 28 4.0 6.0 0.00 0.00 0.00 91 1021.7
20220524104524 51 22 5.0 6.0 0.00 0.00 0.00 91 1021.6
20220524103521 51 28 5.0 6.0 0.00 0.00 0.00 91 1021.4
20220524102520 51 12 5.0 8.0 0.00 0.00 0.00 91 1021.2
20220524101522 51 42 4.0 6.0 0.00 0.00 0.00 91 1021.1
20220524100525 51 22 6.0 8.0 0.00 0.00 0.00 92 1021.3
20220524095526 51 25 5.0 7.0 0.00 0.00 0.00 92 1021.4
20220524094529 51 13 5.0 6.0 0.00 0.00 0.00 92 1021.5
20220524093520 52 35 4.0 6.0 0.00 0.00 0.00 93 1021.4
20220524092519 52 20 6.0 8.0 0.00 0.00 0.00 93 1021.4
20220524091522 52 33 6.0 9.0 0.00 0.00 0.00 94 1021.4
20220524090525 52 9 6.0 7.0 0.00 0.00 0.00 94 1021.3
20220524085529 52 22 6.0 9.0 0.00 0.00 0.00 95 1021.3
20220524084520 52 14 5.0 6.0 0.00 0.00 0.00 95 1021.4
20220524083520 52 13 5.0 6.0 0.00 0.00 0.00 95 1021.4
20220524082523 52 355 4.0 6.0 0.00 0.00 0.00 95 1021.5
20220524081526 52 10 3.0 4.0 0.00 0.00 0.00 94 1021.4
20220524080521 51 355 2.0 4.0 0.00 0.00 0.00 94 1021.4
20220524075521 52 342 1.0 4.0 0.00 0.00 0.00 94 1021.4
20220524074521 52 0.0 0.0 0.00 0.00 0.00 94 1021.4
20220524073524 52 338 0.0 2.0 0.00 0.00 0.00 94 1021.2
20220524072527 52 12 3.0 4.0 0.00 0.00 0.00 93 1021.2
20220524071534 52 336 1.0 3.0 0.00 0.00 0.00 93 1021.4
20220524070522 52 341 2.0 3.0 0.00 0.00 0.00 93 1021.3
20220524065525 52 351 0.0 2.0 0.00 0.00 0.00 92 1021.4
20220524064521 52 356 1.0 2.0 0.00 0.00 0.00 91 1021.4
20220524063521 52 342 2.0 3.0 0.00 0.00 0.00 91 1021.3
20220524062519 52 346 1.0 2.0 0.00 0.00 0.00 90 1021.4
20220524061524 53 0.0 0.0 0.00 0.00 0.00 90 1021.5
20220524060521 53 13 1.0 2.0 0.00 0.00 0.00 90 1021.4
20220524055529 54 0.0 1.0 0.00 0.00 0.00 90 1021.4
20220524054529 55 325 0.0 2.0 0.00 0.00 0.00 90 1021.3
20220524053520 55 351 3.0 5.0 0.00 0.00 0.00 90 1021.3
20220524052523 55 353 3.0 4.0 0.00 0.00 0.00 91 1021.4
20220524051519 55 350 3.0 3.0 0.00 0.00 0.00 92 1021.4
20220524050526 55 29 3.0 5.0 0.00 0.00 0.00 93 1021.5
20220524045519 54 23 3.0 4.0 0.00 0.00 0.00 93 1021.3
20220524044521 54 38 3.0 4.0 0.00 0.00 0.00 93 1021.4
20220524043524 54 35 2.0 3.0 0.00 0.00 0.00 93 1021.6
20220524042527 54 28 2.0 3.0 0.00 0.00 0.00 93 1021.7
20220524041527 53 79 0.0 2.0 0.00 0.00 0.00 93 1021.8
20220524040521 53 346 0.0 2.0 0.00 0.00 0.00 93 1021.9
20220524035521 53 92 1.0 2.0 0.00 0.00 0.00 92 1022.2
20220524034521 53 88 1.0 3.0 0.00 0.00 0.00 92 1022.3
20220524033524 53 90 0.0 2.0 0.00 0.00 0.00 91 1022.5
20220524032527 53 0.0 0.0 0.00 0.00 0.00 91 1022.6
20220524031518 53 0.0 0.0 0.00 0.00 0.00 91 1022.6
20220524030522 53 0.0 2.0 0.00 0.00 0.00 90 1022.7
20220524025525 54 0.0 0.0 0.00 0.00 0.00 89 1022.9
20220524024525 54 0.0 0.0 0.00 0.00 0.00 89 1022.8
20220524023519 54 0.0 0.0 0.00 0.00 0.00 88 1022.7
20220524022520 55 0.0 0.0 0.00 0.00 0.00 87 1022.7
20220524021519 55 0.0 0.0 0.00 0.00 0.00 86 1022.6
20220524020522 55 0.0 0.0 0.00 0.00 0.00 84 1022.5
20220524015530 56 0.0 0.0 0.00 0.00 0.00 82 1022.5
20220524014533 56 0.0 0.0 0.00 0.00 0.00 81 1022.5
20220524013520 57 0.0 0.0 0.00 0.00 0.00 79 1022.5
20220524012523 58 0.0 0.0 0.00 0.00 0.00 77 1022.4
20220524011519 59 0.0 0.0 0.00 0.00 0.00 76 1022.3
20220524010521 60 0.0 0.0 0.00 0.00 0.00 74 1022.3
20220524005522 62 0.0 0.0 0.00 0.00 0.00 72 1022.4
20220524004521 63 0.0 0.0 0.00 0.00 0.00 71 1022.4
20220524003520 63 30 1.0 2.0 0.00 0.00 0.00 70 1022.3
20220524002527 64 34 2.0 3.0 0.00 0.00 0.00 69 1022.3
20220524001524 64 53 3.0 5.0 0.00 0.00 0.00 69 1022.3
20220524000521 64 75 3.0 5.0 0.00 0.00 0.00 69 1022.4
20220523235522 64 57 4.0 6.0 0.00 0.00 0.00 69 1022.3
20220523234521 64 63 4.0 5.0 0.00 0.00 0.00 68 1022.2
20220523233524 64 69 4.0 5.0 0.00 0.00 0.00 68 1022.2
20220523232519 65 52 4.0 6.0 0.00 0.00 0.00 67 1022.2
20220523231521 65 76 5.0 7.0 0.00 0.00 0.00 67 1022.1
20220523230525 65 77 4.0 6.0 0.00 0.00 0.00 66 1022.0
20220523225525 66 56 4.0 7.0 0.00 0.00 0.00 66 1021.8
20220523224521 66 38 5.0 7.0 0.00 0.00 0.00 64 1022.0
20220523223528 67 52 5.0 6.0 0.00 0.00 0.00 63 1022.0
20220523222519 67 23 5.0 7.0 0.00 0.00 0.00 62 1022.0
20220523221519 68 32 5.0 8.0 0.00 0.00 0.00 62 1022.1
20220523220522 68 38 6.0 8.0 0.00 0.00 0.00 62 1022.2
20220523215530 68 41 7.0 9.0 0.00 0.00 0.00 61 1022.1
20220523214525 68 27 7.0 9.0 0.00 0.00 0.00 61 1022.3
20220523213522 69 91 8.0 12.0 0.00 0.00 0.00 61 1022.2
20220523212521 69 55 7.0 10.0 0.00 0.00 0.00 61 1022.2
20220523211523 69 71 8.0 11.0 0.00 0.00 0.00 61 1022.2
20220523210527 68 83 6.0 9.0 0.00 0.00 0.00 61 1022.2
20220523205525 67 58 5.0 7.0 0.00 0.00 0.00 61 1022.2
20220523204521 68 47 6.0 10.0 0.00 0.00 0.00 61 1022.4
20220523203520 68 50 6.0 9.0 0.00 0.00 0.00 60 1022.6
20220523202523 67 22 6.0 9.0 0.00 0.00 0.00 60 1022.8
20220523201521 67 36 7.0 10.0 0.00 0.00 0.00 60 1022.9
20220523200519 67 11 7.0 10.0 0.00 0.00 0.00 60 1023.0
20220523195522 67 8 7.0 8.0 0.00 0.00 0.00 60 1022.9
20220523194521 65 4 7.0 9.0 0.00 0.00 0.00 60 1023.0
20220523193521 65 6 7.0 10.0 0.00 0.00 0.00 60 1023.1
20220523192521 65 25 7.0 8.0 0.00 0.00 0.00 60 1023.2
20220523191519 64 1 7.0 9.0 0.00 0.00 0.00 60 1023.3
20220523190524 64 22 7.0 9.0 0.00 0.00 0.00 59 1023.3
20220523185522 65 4 8.0 12.0 0.00 0.00 0.00 59 1023.5
20220523184530 64 19 7.0 8.0 0.00 0.00 0.00 59 1023.5
20220523183530 64 19 8.0 9.0 0.00 0.00 0.00 59 1023.5
20220523182520 64 2 6.0 9.0 0.00 0.00 0.00 59 1023.6
20220523181519 65 6 8.0 9.0 0.00 0.00 0.00 59 1023.6